Terminal Aerodrome Forecast
Issued by NWS Charleston, WV

Current Version | Previous Version | Text Only | Print | Product List | Glossary Off
Versions: 1 2 3 4 5 6 7 8 9 10 11 12 13 14 15 16 17 18 19 20 21 22 23 24 25 26 27 28 29 30

000
FTUS41 KRLX 271700
TAFHTS
TAF
KHTS 271738Z 2718/2818 21013G20KT 4SM +TSRA BR BKN045CB
     FM272100 21013G20KT 5SM BR VCTS BKN040CB
     FM272200 23011G17KT 6SM BR VCTS BKN040CB
     FM272300 27011G16KT P6SM VCTS BKN045CB
     FM280300 26009KT P6SM BKN045=

USA.gov is the U.S. government's official web portal to all federal, state and local government web resources and services.